Etusivu
METAR-TAF:

METAR-TAF

Lentoasemat :

Luulajan lentoasema

Luulaja, Ruotsi

Leveyspiiri: 65-33N, Pituuspiiri: 022-08E, korkeus merenpinnasta: 17 m

Tämänhetkinen sää

Tämä raportti tehtiin 27 minuuttia sitten, kello 11.50 UTC
Tuuli 6 kn lännestä/lounaasta
Lämpötila 12°C
Kosteus 50%
Ilmanpaine 984 hPa
Näkyvyys 10 km tai enemmän
ei pilviä alle 1500 m:ssä eikä cumulonimbus-pilviä

METAR: ESPA 231150Z 25006KT CAVOK 12/02 Q0984

Aika: 14:17 (12:17 UTC)

Sääennuste

Tämä raportti tehtiin 47 minuuttia sitten, kello 11.30 UTC
Ennuste voimassa 23. päivästä klo 12 UTC - 23. päivään klo 21 UTC
Tuuli 12 kn lännestä/lounaasta
Näkyvyys 10 km tai enemmän
ei pilviä alle 1500 m:ssä eikä cumulonimbus-pilviä

TAF: ESPA 231130Z 2312/2321 25012KT CAVOK

Säähavainnot ja -ennusteet yli 4000 lentoasemalta (METAR- ja TAF-raportit).

Käytössä olevat sääasemat on merkitty karttaan keltaisilla ja punaisilla pisteillä.

Aseta hiiri pisteen päälle nähdäksesi sääaseman nimen.

Klikkaa sitten nähdäksesi säähavainnot ja -ennusteet.

Kartan vaihtaminen: klikkaa mustalla rastilla varustettuja vihreitä pisteitä, niin voit zoomata sisään; viivalla varustettua vihreää pistettä, niin voit zoomata ulos tai vihreitä nuolia, niin pääset viereisille kartoille.


METAR-TAF: